Time;durP1;ratioP1;P1;durP2;ratioP2;P2;SDS_P1;SDS_P2;PMS_P1;PMS_P2;Temp;Humidity;BMP_temperature;BMP_pressure;BME280_temperature;BME280_humidity;BME280_pressure;Samples;Min_cycle;Max_cycle;Signal;HPM_P1;HPM_P2
2021/10/14 00:02:25;;;;;;;20.77;13.88;;;;;;;12.33;64.08;99918.06;5052117;28;20021;-38
2021/10/14 00:04:50;;;;;;;22.35;14.77;;;;;;;12.39;63.18;99910.25;5050836;28;20029;-38
2021/10/14 00:07:16;;;;;;;20.65;14.40;;;;;;;12.40;63.08;99914.59;5052102;28;20326;-38
2021/10/14 00:09:41;;;;;;;20.85;13.77;;;;;;;12.43;63.87;99914.13;5050517;28;20017;-38
2021/10/14 00:12:06;;;;;;;21.63;13.63;;;;;;;12.57;62.84;99910.41;5051809;28;20029;-38
2021/10/14 00:14:32;;;;;;;22.85;14.25;;;;;;;12.32;63.62;99911.09;5051932;28;20025;-38
2021/10/14 00:16:58;;;;;;;24.98;14.52;;;;;;;12.54;63.90;99923.34;5051730;28;20429;-38
2021/10/14 00:19:23;;;;;;;23.13;14.55;;;;;;;12.19;65.16;99915.69;5051803;28;20380;-38
2021/10/14 00:21:48;;;;;;;23.90;14.80;;;;;;;12.35;66.69;99933.06;5051560;28;20021;-38
2021/10/14 00:24:14;;;;;;;21.27;14.43;;;;;;;11.81;66.56;99925.16;5051507;28;20036;-38
2021/10/14 00:26:39;;;;;;;23.27;14.05;;;;;;;11.63;68.01;99925.78;5051280;28;20032;-39
2021/10/14 00:29:05;;;;;;;24.55;14.32;;;;;;;11.82;66.81;99928.63;5051664;28;20029;-36
2021/10/14 00:31:30;;;;;;;24.70;14.60;;;;;;;12.01;66.66;99924.31;5052240;28;20590;-37
2021/10/14 00:33:56;;;;;;;24.80;15.43;;;;;;;11.80;68.32;99923.50;5051636;28;20040;-36
2021/10/14 00:36:22;;;;;;;22.92;15.40;;;;;;;12.00;67.73;99922.69;5052055;28;20029;-37
2021/10/14 00:38:47;;;;;;;24.48;14.82;;;;;;;11.77;67.75;99921.25;5052125;28;20051;-37
2021/10/14 00:41:15;;;;;;;25.73;14.25;;;;;;;11.89;68.07;99924.94;5051990;28;20095;-39
2021/10/14 00:43:42;;;;;;;25.77;14.45;;;;;;;11.81;68.72;99930.47;5051942;28;20024;-38
2021/10/14 00:46:17;;;;;;;24.30;14.80;;;;;;;12.14;67.84;99934.97;5051638;28;20095;-46
2021/10/14 00:48:42;;;;;;;25.20;14.48;;;;;;;12.05;66.53;99942.38;5050068;28;20021;-48
2021/10/14 00:51:08;;;;;;;22.98;14.70;;;;;;;12.10;66.77;99944.41;5051311;28;20396;-48
2021/10/14 00:53:36;;;;;;;21.60;14.65;;;;;;;12.10;67.15;99937.22;5051164;28;20201;-49
2021/10/14 00:56:02;;;;;;;22.17;14.27;;;;;;;12.08;65.96;99923.28;5051191;28;20029;-49
2021/10/14 00:58:27;;;;;;;24.65;14.63;;;;;;;12.10;66.68;99923.88;5049961;28;20051;-50
2021/10/14 01:00:52;;;;;;;22.75;14.82;;;;;;;11.94;66.82;99929.69;5050967;28;20495;-51
2021/10/14 01:03:18;;;;;;;21.33;14.15;;;;;;;11.93;66.96;99936.03;5050900;28;20443;-49
2021/10/14 01:05:43;;;;;;;20.00;13.45;;;;;;;11.79;66.47;99932.53;5050736;28;20114;-49
2021/10/14 01:08:09;;;;;;;21.42;13.88;;;;;;;11.74;67.60;99927.81;5050899;28;20017;-49
2021/10/14 01:10:34;;;;;;;19.73;12.77;;;;;;;11.68;65.50;99928.63;5050882;28;20024;-50
2021/10/14 01:13:00;;;;;;;22.38;13.48;;;;;;;11.89;63.99;99935.63;5050776;28;20033;-48
2021/10/14 01:15:26;;;;;;;20.88;12.88;;;;;;;11.89;65.92;99932.94;5032631;28;20025;-49
2021/10/14 01:17:51;;;;;;;21.52;13.43;;;;;;;11.94;67.34;99940.34;5050755;28;20362;-49
2021/10/14 01:20:17;;;;;;;19.10;13.18;;;;;;;11.95;66.94;99938.50;5048963;28;20083;-50
2021/10/14 01:22:42;;;;;;;23.95;14.43;;;;;;;11.74;69.04;99940.31;5048973;28;20457;-50
2021/10/14 01:25:08;;;;;;;21.13;13.93;;;;;;;12.00;67.95;99936.03;5050217;28;20047;-47
2021/10/14 01:27:34;;;;;;;19.67;13.48;;;;;;;12.13;68.04;99946.69;5050557;28;20059;-47
2021/10/14 01:29:59;;;;;;;21.98;13.98;;;;;;;12.16;68.33;99951.56;5050684;28;20028;-51
2021/10/14 01:32:24;;;;;;;21.10;13.73;;;;;;;12.13;67.32;99954.69;5049714;28;20041;-49
2021/10/14 01:34:50;;;;;;;19.88;13.48;;;;;;;11.92;68.62;99958.41;5050126;28;20143;-48
2021/10/14 01:37:15;;;;;;;22.33;13.68;;;;;;;12.13;67.70;99955.50;5050042;28;20028;-48
2021/10/14 01:39:41;;;;;;;21.10;13.75;;;;;;;11.91;68.34;99957.56;5050217;28;20116;-50
2021/10/14 01:42:06;;;;;;;21.20;14.25;;;;;;;11.88;70.48;99957.13;5050414;28;20087;-49
2021/10/14 01:44:32;;;;;;;22.40;14.95;;;;;;;12.09;70.00;99956.94;5050581;28;20437;-49
2021/10/14 01:46:57;;;;;;;21.35;14.30;;;;;;;12.20;69.27;99954.66;5049319;28;20487;-48
2021/10/14 01:49:22;;;;;;;21.02;14.55;;;;;;;12.25;70.15;99953.00;5049553;28;20024;-49
2021/10/14 01:51:48;;;;;;;22.70;14.85;;;;;;;12.30;70.52;99952.38;5050399;28;20025;-49
2021/10/14 01:54:13;;;;;;;22.90;14.82;;;;;;;11.92;72.54;99964.56;5050280;28;20049;-49
2021/10/14 01:56:39;;;;;;;24.58;15.57;;;;;;;11.96;73.10;99964.16;5050494;28;20037;-49
2021/10/14 01:59:04;;;;;;;21.52;15.10;;;;;;;11.99;71.66;99950.38;5050380;28;20033;-49
2021/10/14 02:01:30;;;;;;;23.58;15.93;;;;;;;12.01;70.88;99954.47;5050368;28;20024;-49
2021/10/14 02:03:55;;;;;;;22.88;14.07;;;;;;;11.99;68.52;99953.88;5048440;28;20392;-51
2021/10/14 02:06:21;;;;;;;23.20;13.55;;;;;;;12.37;67.04;99955.03;5050313;28;20455;-49
2021/10/14 02:08:46;;;;;;;21.35;14.20;;;;;;;11.96;70.64;99959.63;5049589;28;20370;-51
2021/10/14 02:11:12;;;;;;;21.80;15.20;;;;;;;11.86;72.27;99959.19;5049866;28;20024;-51
2021/10/14 02:13:37;;;;;;;20.67;13.55;;;;;;;11.98;67.74;99970.91;5049642;28;20025;-51
2021/10/14 02:16:03;;;;;;;20.77;14.23;;;;;;;12.10;69.36;99960.41;5049875;28;20037;-49
2021/10/14 02:18:28;;;;;;;23.92;14.70;;;;;;;12.06;69.91;99960.00;5049940;28;20033;-50
2021/10/14 02:20:54;;;;;;;22.83;14.63;;;;;;;12.32;69.83;99961.00;5049966;28;20025;-51
2021/10/14 02:23:19;;;;;;;22.40;14.85;;;;;;;11.93;71.48;99957.38;5049787;28;20024;-52
2021/10/14 02:25:44;;;;;;;23.42;15.48;;;;;;;12.17;71.74;99953.22;5048366;28;20029;-50
2021/10/14 02:28:10;;;;;;;22.13;14.98;;;;;;;12.22;70.60;99961.44;5049547;28;20059;-49
2021/10/14 02:30:35;;;;;;;23.90;15.13;;;;;;;12.28;70.90;99962.41;5049603;28;20072;-50
2021/10/14 02:33:01;;;;;;;22.63;14.63;;;;;;;12.14;72.31;99964.31;5049222;28;20095;-52
2021/10/14 02:35:27;;;;;;;25.00;15.40;;;;;;;12.29;71.32;99974.75;5049636;28;20032;-52
2021/10/14 02:37:52;;;;;;;22.23;14.82;;;;;;;12.28;71.15;99978.44;5049655;28;20021;-52
2021/10/14 02:40:18;;;;;;;22.98;15.50;;;;;;;12.12;73.28;99977.03;5049641;28;20036;-51
2021/10/14 02:42:43;;;;;;;26.23;16.33;;;;;;;12.12;74.63;99972.50;5049834;28;20154;-52
2021/10/14 02:45:09;;;;;;;25.55;16.25;;;;;;;12.16;74.20;99974.78;5051823;28;20024;-51
2021/10/14 02:47:34;;;;;;;23.00;15.88;;;;;;;11.90;77.35;99977.28;5053381;28;20069;-53
2021/10/14 02:49:59;;;;;;;26.15;15.85;;;;;;;11.75;77.06;99984.63;5053687;28;20021;-51
2021/10/14 02:52:25;;;;;;;27.08;16.40;;;;;;;12.06;75.65;99976.00;5060108;28;20024;-54
2021/10/14 02:54:50;;;;;;;26.25;16.85;;;;;;;12.26;75.70;99975.16;5074023;28;20059;-50
2021/10/14 02:57:16;;;;;;;25.88;16.65;;;;;;;11.88;77.58;99978.44;5074024;28;20024;-50
2021/10/14 02:59:41;;;;;;;29.02;17.60;;;;;;;12.00;78.86;99981.38;5073706;28;20448;-52
2021/10/14 03:02:07;;;;;;;25.08;16.30;;;;;;;11.84;79.00;99978.06;5073833;28;20024;-51
2021/10/14 03:04:32;;;;;;;27.95;16.88;;;;;;;11.67;78.85;99987.47;5073667;28;20012;-53
2021/10/14 03:06:58;;;;;;;106.97;62.15;;;;;;;11.64;79.39;99994.06;5073449;28;20031;-50
2021/10/14 03:09:23;;;;;;;40.10;25.05;;;;;;;11.62;78.13;99996.09;5073611;28;20047;-49
2021/10/14 03:11:48;;;;;;;32.83;20.08;;;;;;;11.57;76.69;99995.06;5073661;28;20122;-52
2021/10/14 03:14:14;;;;;;;47.70;29.05;;;;;;;11.47;76.48;99996.28;5072846;28;20488;-52
2021/10/14 03:16:39;;;;;;;40.30;25.25;;;;;;;11.32;77.33;99993.81;5073082;28;20017;-51
2021/10/14 03:19:05;;;;;;;40.03;25.48;;;;;;;11.19;77.06;100003.63;5071705;28;20028;-49
2021/10/14 03:21:30;;;;;;;47.28;28.92;;;;;;;10.88;77.92;99981.81;5053059;28;20021;-52
2021/10/14 03:23:56;;;;;;;24.95;16.83;;;;;;;10.85;79.79;100011.50;5052879;28;20039;-50
2021/10/14 03:26:21;;;;;;;24.15;16.73;;;;;;;10.88;77.91;100016.41;5052728;28;20086;-51
2021/10/14 03:28:47;;;;;;;25.80;16.92;;;;;;;10.88;77.35;100005.78;5052724;28;20078;-50
2021/10/14 03:31:12;;;;;;;24.83;16.90;;;;;;;11.08;77.35;100011.19;5052455;28;20044;-50
2021/10/14 03:33:37;;;;;;;24.83;16.92;;;;;;;10.92;77.84;100011.53;5052597;28;20056;-49
2021/10/14 03:36:06;;;;;;;26.92;17.50;;;;;;;11.22;75.91;100006.69;5052535;28;20021;-50
2021/10/14 03:38:32;;;;;;;27.10;18.08;;;;;;;11.01;76.93;100013.00;5052581;28;20047;-50
2021/10/14 03:40:57;;;;;;;28.35;18.63;;;;;;;10.91;77.54;100008.03;5052548;28;20469;-49
2021/10/14 03:43:23;;;;;;;29.40;18.83;;;;;;;10.77;80.38;100016.97;5052238;28;20024;-52
2021/10/14 03:45:48;;;;;;;28.33;19.17;;;;;;;10.86;79.27;100018.47;5052430;28;20029;-52
2021/10/14 03:48:13;;;;;;;30.63;20.20;;;;;;;10.68;79.41;100026.16;5052616;28;20078;-51
2021/10/14 03:50:39;;;;;;;31.98;21.00;;;;;;;10.66;79.52;100022.88;5052374;28;20040;-53
2021/10/14 03:53:04;;;;;;;28.83;19.05;;;;;;;10.82;78.64;100027.88;5052275;28;20036;-51
2021/10/14 03:55:30;;;;;;;28.77;18.17;;;;;;;10.89;77.32;100026.06;5051999;28;20025;-51
2021/10/14 03:57:56;;;;;;;26.67;17.90;;;;;;;10.96;78.61;100023.41;5052267;28;20108;-52
2021/10/14 04:00:21;;;;;;;29.60;19.30;;;;;;;10.81;78.64;100025.41;5051898;28;20511;-51
2021/10/14 04:02:47;;;;;;;26.67;18.60;;;;;;;10.94;78.76;100025.44;5052891;28;20384;-52
2021/10/14 04:05:12;;;;;;;59.40;34.58;;;;;;;10.80;78.18;100024.59;5052633;28;20508;-50
2021/10/14 04:07:38;;;;;;;52.70;31.92;;;;;;;10.80;79.66;100023.78;5051935;28;20043;-50
2021/10/14 04:10:04;;;;;;;48.08;28.75;;;;;;;10.47;80.61;100008.44;5051593;28;20104;-52
2021/10/14 04:12:30;;;;;;;30.63;18.88;;;;;;;10.62;79.71;100032.25;5051429;28;20104;-50
2021/10/14 04:14:55;;;;;;;30.58;19.33;;;;;;;10.76;79.48;100020.69;5051712;28;20032;-52
2021/10/14 04:17:20;;;;;;;28.10;18.95;;;;;;;10.48;81.02;100023.41;5051677;28;20037;-50
2021/10/14 04:19:46;;;;;;;28.30;18.98;;;;;;;10.64;81.03;100025.75;5051322;28;20029;-48
2021/10/14 04:22:11;;;;;;;28.30;18.88;;;;;;;10.53;81.64;100019.13;5051616;28;20025;-51
2021/10/14 04:24:39;;;;;;;27.65;18.52;;;;;;;10.81;79.92;100014.75;5050988;28;20483;-51
2021/10/14 04:27:05;;;;;;;28.25;19.17;;;;;;;10.87;79.49;100024.59;5050898;28;20024;-51
2021/10/14 04:29:30;;;;;;;28.38;18.50;;;;;;;10.73;79.17;100019.22;5050745;28;20464;-53
2021/10/14 04:31:55;;;;;;;32.13;20.00;;;;;;;10.59;81.44;100012.19;5050390;28;20061;-54
2021/10/14 04:34:21;;;;;;;30.77;20.15;;;;;;;10.50;82.91;100013.38;5049145;28;20445;-53
2021/10/14 04:36:46;;;;;;;28.25;19.13;;;;;;;10.53;82.04;100011.16;5050762;28;20029;-53
2021/10/14 04:39:12;;;;;;;32.88;20.27;;;;;;;10.55;80.64;100008.28;5050587;28;20022;-50
2021/10/14 04:41:37;;;;;;;33.50;20.10;;;;;;;10.59;81.41;100008.72;5050430;28;20017;-50
2021/10/14 04:44:03;;;;;;;47.53;27.33;;;;;;;10.63;81.40;100008.13;5050099;28;20013;-53
2021/10/14 04:46:29;;;;;;;45.83;28.02;;;;;;;10.62;81.61;100008.31;5048723;28;20119;-50
2021/10/14 04:48:54;;;;;;;33.35;22.65;;;;;;;10.71;80.92;100015.13;5050002;28;20151;-51
2021/10/14 04:51:20;;;;;;;48.22;29.20;;;;;;;10.74;81.03;100023.53;5049575;28;20021;-51
2021/10/14 04:53:45;;;;;;;35.10;22.67;;;;;;;10.83;80.65;100024.16;5049760;28;20033;-50
2021/10/14 04:56:10;;;;;;;29.65;20.08;;;;;;;10.75;80.03;100008.38;5050030;28;20028;-50
2021/10/14 04:58:36;;;;;;;31.42;19.88;;;;;;;10.93;79.92;100014.00;5049754;28;20389;-52
2021/10/14 05:01:01;;;;;;;32.67;20.17;;;;;;;10.79;80.57;100009.63;5049790;28;20108;-52
2021/10/14 05:03:27;;;;;;;33.33;19.92;;;;;;;10.66;81.20;100006.91;5048162;28;20017;-53
2021/10/14 05:05:52;;;;;;;28.85;18.98;;;;;;;10.83;80.29;100010.84;5040875;28;20029;-51
2021/10/14 05:08:18;;;;;;;30.33;19.50;;;;;;;10.87;81.23;100025.44;5047219;28;20044;-51
2021/10/14 05:10:43;;;;;;;32.72;20.65;;;;;;;10.77;80.75;100027.63;5039496;28;20053;-52
2021/10/14 05:13:09;;;;;;;32.45;20.75;;;;;;;10.89;80.29;100030.53;5028286;28;20029;-50
2021/10/14 05:15:35;;;;;;;32.78;20.63;;;;;;;10.71;80.80;100039.06;5029901;28;20021;-52
2021/10/14 05:18:00;;;;;;;37.55;21.38;;;;;;;10.75;81.98;100041.13;5029901;28;20029;-53
2021/10/14 05:20:26;;;;;;;37.42;23.85;;;;;;;10.72;82.03;100046.06;5041863;28;20064;-51
2021/10/14 05:22:51;;;;;;;36.00;23.15;;;;;;;10.82;80.19;100051.81;5049970;28;20021;-52
2021/10/14 05:25:17;;;;;;;41.75;26.98;;;;;;;10.81;81.72;100044.03;5050238;28;20021;-53
2021/10/14 05:27:42;;;;;;;33.97;22.55;;;;;;;11.01;80.54;100057.44;5050031;28;20572;-51
2021/10/14 05:30:08;;;;;;;31.48;21.27;;;;;;;11.11;80.64;100048.03;5050005;28;20366;-52
2021/10/14 05:32:33;;;;;;;30.73;19.63;;;;;;;10.86;79.94;100045.09;5049425;28;20052;-50
2021/10/14 05:34:59;;;;;;;31.17;20.30;;;;;;;10.76;80.37;100047.28;5049526;28;20044;-50
2021/10/14 05:37:26;;;;;;;31.80;19.35;;;;;;;10.75;81.20;100050.97;5049665;28;20029;-52
2021/10/14 05:39:52;;;;;;;33.83;20.88;;;;;;;10.63;81.53;100049.88;5049764;28;20115;-53
2021/10/14 05:42:17;;;;;;;32.65;20.25;;;;;;;10.65;82.26;100058.50;5049315;28;20040;-53
2021/10/14 05:44:43;;;;;;;31.58;20.40;;;;;;;10.70;81.18;100059.56;5049398;28;20029;-53
2021/10/14 05:47:08;;;;;;;31.90;20.30;;;;;;;10.67;81.65;100061.78;5049467;28;20032;-52
2021/10/14 05:49:34;;;;;;;29.70;19.83;;;;;;;10.66;81.62;100065.44;5049573;28;20032;-52
2021/10/14 05:51:59;;;;;;;31.10;20.13;;;;;;;10.71;81.95;100071.81;5049513;28;20571;-51
2021/10/14 05:54:24;;;;;;;28.65;18.60;;;;;;;10.67;81.25;100072.44;5049196;28;20024;-53
2021/10/14 05:56:50;;;;;;;29.35;19.17;;;;;;;10.63;82.48;100074.66;5049011;28;20029;-50
2021/10/14 05:59:15;;;;;;;29.58;19.08;;;;;;;10.63;80.90;100077.31;5049907;28;20029;-52
2021/10/14 06:01:41;;;;;;;30.33;19.42;;;;;;;10.64;82.47;100080.78;5046995;28;20048;-53
2021/10/14 06:04:06;;;;;;;33.15;19.23;;;;;;;10.66;83.67;100086.75;5038176;28;20547;-53
2021/10/14 06:06:32;;;;;;;31.30;19.15;;;;;;;10.61;82.82;100091.84;5029225;28;20033;-53
2021/10/14 06:08:57;;;;;;;30.90;19.90;;;;;;;10.52;83.84;100094.63;5029562;28;20152;-40
2021/10/14 06:11:23;;;;;;;31.88;18.50;;;;;;;10.60;82.75;100098.16;5029598;28;20025;-40
2021/10/14 06:13:48;;;;;;;28.20;17.35;;;;;;;10.72;82.08;100092.13;5029391;28;20045;-40
2021/10/14 06:16:14;;;;;;;26.95;17.77;;;;;;;10.74;82.87;100098.06;5029444;28;20083;-40
2021/10/14 06:18:40;;;;;;;29.92;18.30;;;;;;;10.85;81.97;100099.38;5029136;28;20631;-40
2021/10/14 06:21:05;;;;;;;28.13;17.63;;;;;;;10.64;82.68;100105.59;5047052;28;20044;-40
2021/10/14 06:23:31;;;;;;;26.42;17.80;;;;;;;10.47;83.40;100109.53;5049483;28;20025;-39
2021/10/14 06:25:58;;;;;;;27.27;17.30;;;;;;;10.65;82.45;100109.88;5049092;28;20040;-39
2021/10/14 06:28:23;;;;;;;23.77;15.63;;;;;;;10.46;82.33;100095.41;5048942;28;20048;-39
2021/10/14 06:30:49;;;;;;;25.92;17.30;;;;;;;10.54;82.59;100111.22;5055103;28;20044;-39
2021/10/14 06:33:15;;;;;;;24.27;16.45;;;;;;;10.72;81.36;100117.91;5054087;28;20032;-39
2021/10/14 06:35:40;;;;;;;24.52;16.08;;;;;;;10.60;81.54;100108.81;5036872;28;20036;-40
2021/10/14 06:38:06;;;;;;;23.08;15.73;;;;;;;10.50;82.45;100109.16;5038062;28;20079;-39
2021/10/14 06:40:32;;;;;;;23.50;16.38;;;;;;;10.62;81.40;100109.44;5029332;28;20033;-39
2021/10/14 06:42:58;;;;;;;24.45;15.65;;;;;;;10.53;81.31;100114.94;5028894;28;20033;-40
2021/10/14 06:45:23;;;;;;;27.55;16.08;;;;;;;10.43;82.09;100118.94;5028656;28;20037;-38
2021/10/14 06:47:49;;;;;;;24.40;16.58;;;;;;;10.34;83.02;100121.75;5028850;28;20053;-40
2021/10/14 06:50:14;;;;;;;22.38;15.50;;;;;;;10.37;82.92;100115.19;5028962;28;20131;-40
2021/10/14 06:52:40;;;;;;;26.15;16.50;;;;;;;10.50;82.93;100117.97;5036139;28;20388;-39
2021/10/14 06:55:06;;;;;;;149.73;78.38;;;;;;;10.55;82.20;100117.41;5047909;28;20025;-39
2021/10/14 06:57:31;;;;;;;39.00;24.35;;;;;;;10.42;83.17;100110.13;5048610;28;20031;-38
2021/10/14 06:59:57;;;;;;;30.83;18.50;;;;;;;10.29;84.36;100113.47;5049159;28;20498;-39
2021/10/14 07:02:22;;;;;;;22.65;15.10;;;;;;;10.34;82.48;100121.75;5048608;28;20388;-40
2021/10/14 07:04:48;;;;;;;23.50;15.43;;;;;;;10.45;82.28;100119.56;5049589;28;20021;-41
2021/10/14 07:07:13;;;;;;;24.02;15.55;;;;;;;10.49;82.31;100113.66;5048937;28;20043;-40
2021/10/14 07:09:39;;;;;;;21.45;15.55;;;;;;;10.28;82.46;100125.16;5049038;28;20067;-40
2021/10/14 07:12:10;;;;;;;31.77;17.30;;;;;;;10.49;82.51;100113.66;5048995;28;20052;-39
2021/10/14 07:14:41;;;;;;;35.33;17.10;;;;;;;10.44;82.16;100132.03;5048900;28;20028;-39
2021/10/14 07:17:07;;;;;;;27.20;14.65;;;;;;;10.42;81.81;100127.94;5048648;28;20583;-40
2021/10/14 07:19:32;;;;;;;21.45;14.32;;;;;;;10.21;83.02;100134.09;5048742;28;20036;-40
2021/10/14 07:21:59;;;;;;;20.33;12.80;;;;;;;9.95;83.32;100136.28;5048744;28;20032;-40
2021/10/14 07:24:24;;;;;;;23.30;14.63;;;;;;;10.20;84.13;100148.38;5048902;28;20023;-40
2021/10/14 07:26:50;;;;;;;24.15;15.20;;;;;;;10.21;83.71;100148.19;5048301;28;20025;-39
2021/10/14 07:29:16;;;;;;;21.58;14.13;;;;;;;10.24;82.75;100142.47;5049081;28;20091;-39
2021/10/14 07:31:41;;;;;;;21.25;14.23;;;;;;;10.20;82.57;100156.38;5051626;28;20134;-40
2021/10/14 07:34:07;;;;;;;18.50;12.95;;;;;;;10.30;82.54;100156.84;5052432;28;20078;-39
2021/10/14 07:36:32;;;;;;;19.88;13.30;;;;;;;10.26;82.82;100159.09;5052701;28;20021;-40
2021/10/14 07:38:58;;;;;;;23.30;13.88;;;;;;;10.29;82.48;100157.88;5052409;28;20032;-40
2021/10/14 07:41:24;;;;;;;19.48;12.55;;;;;;;9.75;84.86;100156.53;5051263;28;20511;-39
2021/10/14 07:43:49;;;;;;;19.63;13.20;;;;;;;9.91;84.42;100156.28;5046163;28;20025;-52
2021/10/14 07:46:15;;;;;;;21.23;13.05;;;;;;;9.83;85.23;100164.41;5046017;28;20110;-52
2021/10/14 07:48:40;;;;;;;18.40;12.80;;;;;;;10.02;84.56;100157.63;5039639;28;20032;-52
2021/10/14 07:51:07;;;;;;;20.27;12.95;;;;;;;9.82;85.51;100161.91;5041403;28;20154;-51
2021/10/14 07:53:33;;;;;;;21.17;14.10;;;;;;;9.59;86.88;100152.25;5051696;28;20025;-50
2021/10/14 07:55:58;;;;;;;17.98;12.20;;;;;;;9.75;85.53;100160.03;5051558;28;20032;-40
2021/10/14 07:58:23;;;;;;;17.10;11.73;;;;;;;9.70;85.35;100157.09;5051112;28;20017;-40
2021/10/14 08:00:49;;;;;;;16.38;11.60;;;;;;;9.82;83.98;100167.22;5051442;28;20025;-39
2021/10/14 08:03:15;;;;;;;15.80;10.75;;;;;;;9.78;84.42;100167.59;5051751;28;20029;-40
2021/10/14 08:05:40;;;;;;;17.63;10.75;;;;;;;9.87;84.08;100164.84;5051470;28;20033;-40
2021/10/14 08:08:06;;;;;;;15.30;10.52;;;;;;;10.00;83.73;100174.81;5051922;28;20028;-40
2021/10/14 08:10:32;;;;;;;13.43;9.88;;;;;;;9.61;84.66;100174.16;5051943;28;20029;-40
2021/10/14 08:12:57;;;;;;;12.68;9.32;;;;;;;9.71;83.53;100177.34;5052255;28;20414;-40
2021/10/14 08:15:23;;;;;;;12.90;8.93;;;;;;;9.67;83.31;100172.59;5050790;28;20033;-39
2021/10/14 08:17:49;;;;;;;13.23;8.52;;;;;;;9.12;85.95;100172.09;5050719;28;20021;-39
2021/10/14 08:20:14;;;;;;;11.60;8.48;;;;;;;9.30;85.10;100171.75;5052212;28;20036;-39
2021/10/14 08:22:40;;;;;;;11.77;8.10;;;;;;;9.64;83.93;100170.31;5051770;28;20349;-38
2021/10/14 08:25:07;;;;;;;10.88;7.65;;;;;;;9.58;83.39;100175.34;5051490;28;20029;-39
2021/10/14 08:27:32;;;;;;;10.38;7.25;;;;;;;9.69;82.79;100171.41;5050358;28;20080;-38
2021/10/14 08:29:57;;;;;;;11.57;7.70;;;;;;;9.58;83.10;100171.88;5050334;28;20695;-39
2021/10/14 08:32:24;;;;;;;14.38;9.02;;;;;;;9.54;83.19;100175.94;5050611;28;20715;-39
2021/10/14 08:34:50;;;;;;;10.85;7.38;;;;;;;9.05;85.97;100185.28;5050748;28;20033;-39
2021/10/14 08:37:21;;;;;;;10.45;6.95;;;;;;;9.41;84.16;100181.09;5050375;28;20393;-39
2021/10/14 08:39:47;;;;;;;9.50;6.93;;;;;;;9.53;83.66;100177.75;5050114;28;20029;-39
2021/10/14 08:42:13;;;;;;;8.90;6.30;;;;;;;9.27;84.88;100182.72;5050616;28;20105;-39
2021/10/14 08:44:39;;;;;;;9.23;6.47;;;;;;;9.44;83.58;100170.06;5051534;28;20013;-40
2021/10/14 08:47:04;;;;;;;9.93;6.50;;;;;;;9.50;83.26;100171.97;5050269;28;20049;-39
2021/10/14 08:49:30;;;;;;;7.45;5.55;;;;;;;9.26;83.82;100179.25;5051460;28;20098;-40
2021/10/14 08:51:56;;;;;;;11.20;6.40;;;;;;;9.09;84.71;100172.47;5054012;28;20017;-39
2021/10/14 08:54:21;;;;;;;8.18;5.47;;;;;;;9.15;83.51;100182.38;5069755;28;20043;-39
2021/10/14 08:56:47;;;;;;;6.93;4.80;;;;;;;9.31;82.58;100179.53;5071060;28;20016;-39
2021/10/14 08:59:14;;;;;;;8.18;5.45;;;;;;;9.12;83.34;100182.72;5070576;28;20048;-39
2021/10/14 09:01:43;;;;;;;7.55;5.25;;;;;;;9.05;83.75;100163.25;5070135;28;20032;-39
2021/10/14 09:04:14;;;;;;;8.77;5.35;;;;;;;9.26;84.34;100165.97;5070800;28;20091;-40
2021/10/14 09:06:40;;;;;;;7.93;5.10;;;;;;;9.05;83.01;100165.91;5070467;28;20055;-40
2021/10/14 09:09:05;;;;;;;7.63;5.00;;;;;;;9.14;82.12;100167.44;5070000;28;20012;-39
2021/10/14 09:11:31;;;;;;;6.78;4.78;;;;;;;9.16;81.93;100168.09;5070130;28;20647;-39
2021/10/14 09:14:04;;;;;;;7.10;5.15;;;;;;;8.93;84.08;100178.78;5070005;28;20435;-39
2021/10/14 09:16:39;;;;;;;6.13;4.68;;;;;;;8.84;83.69;100178.06;5070153;28;20032;-39
2021/10/14 09:19:15;;;;;;;7.03;5.00;;;;;;;9.29;83.04;100178.03;5069004;28;20024;-39
2021/10/14 09:21:46;;;;;;;6.85;3.83;;;;;;;9.14;81.52;100178.06;5049896;28;20030;-39
2021/10/14 09:24:31;;;;;;;5.88;4.20;;;;;;;8.80;82.34;100166.97;5049996;28;20456;-39
2021/10/14 09:26:59;;;;;;;5.05;3.85;;;;;;;8.51;84.65;100158.94;5050229;28;20052;-39
2021/10/14 09:29:25;;;;;;;6.00;3.55;;;;;;;8.41;85.15;100159.16;5049687;28;20469;-39
2021/10/14 09:31:55;;;;;;;4.75;3.72;;;;;;;8.66;83.64;100159.78;5049438;28;20548;-39
2021/10/14 09:34:25;;;;;;;5.00;3.83;;;;;;;9.09;82.45;100160.03;5049607;28;20029;-40
2021/10/14 09:36:50;;;;;;;5.93;4.10;;;;;;;8.96;83.32;100158.00;5049499;28;20108;-40
2021/10/14 09:39:16;;;;;;;5.80;3.60;;;;;;;8.68;83.48;100154.31;5047429;28;20029;-40
2021/10/14 09:41:42;;;;;;;4.88;3.45;;;;;;;8.60;84.17;100153.41;5049656;28;20021;-40
2021/10/14 09:44:14;;;;;;;5.65;3.60;;;;;;;8.59;83.75;100153.59;5049634;28;20013;-39
2021/10/14 09:46:39;;;;;;;6.63;3.80;;;;;;;8.57;83.85;100161.72;5041128;28;20505;-40
2021/10/14 09:49:07;;;;;;;5.63;3.58;;;;;;;8.73;85.33;100159.91;5030964;28;20034;-40
2021/10/14 09:51:33;;;;;;;5.05;3.53;;;;;;;9.16;83.59;100162.78;5049513;28;20057;-40
2021/10/14 09:53:59;;;;;;;4.45;3.22;;;;;;;8.82;82.60;100152.72;5045023;28;20024;-40
2021/10/14 09:56:26;;;;;;;5.90;3.28;;;;;;;8.72;83.16;100150.28;5039396;28;20063;-39
2021/10/14 09:58:52;;;;;;;4.97;3.25;;;;;;;8.62;84.55;100155.88;5030526;28;20025;-40
2021/10/14 10:01:17;;;;;;;3.88;3.15;;;;;;;8.74;83.85;100149.13;5029396;28;20453;-39
2021/10/14 10:03:42;;;;;;;4.95;3.47;;;;;;;8.92;82.43;100145.28;5030901;28;20017;-40
2021/10/14 10:06:08;;;;;;;4.43;3.42;;;;;;;8.97;82.00;100151.69;5028953;28;20029;-39
2021/10/14 10:08:37;;;;;;;4.32;3.20;;;;;;;9.11;81.83;100142.06;5011930;28;20083;-40
2021/10/14 10:11:05;;;;;;;4.03;3.00;;;;;;;8.69;82.79;100140.06;5028842;28;20032;-39
2021/10/14 10:13:33;;;;;;;3.70;2.93;;;;;;;8.89;82.98;100143.00;5028577;28;20104;-40
2021/10/14 10:16:19;;;;;;;3.97;3.03;;;;;;;8.95;82.53;100147.59;5012434;28;20096;-39
2021/10/14 10:18:46;;;;;;;4.47;3.28;;;;;;;8.70;84.19;100145.19;5029894;28;20106;-40
2021/10/14 10:21:31;;;;;;;4.55;3.45;;;;;;;8.67;83.98;100134.13;5030105;28;20018;-38
2021/10/14 10:24:03;;;;;;;4.70;3.60;;;;;;;8.94;83.11;100135.31;5025917;28;20426;-39
2021/10/14 10:26:35;;;;;;;4.75;3.40;;;;;;;8.79;83.88;100140.59;5030364;28;20025;-39
2021/10/14 10:29:21;;;;;;;4.15;3.22;;;;;;;8.84;83.77;100151.50;5030026;28;20071;-39
2021/10/14 10:31:51;;;;;;;5.75;3.38;;;;;;;8.74;84.53;100140.34;5029567;28;20133;-39
2021/10/14 10:37:27;;;;;;;4.70;3.75;;;;;;;8.89;83.43;100138.53;5029785;28;20029;-39
2021/10/14 10:40:13;;;;;;;5.63;4.10;;;;;;;9.10;83.45;100143.09;5041548;28;20024;-39
2021/10/14 10:42:45;;;;;;;4.75;3.60;;;;;;;9.12;82.81;100135.78;5050294;28;20024;-39
2021/10/14 10:45:18;;;;;;;5.72;3.67;;;;;;;8.91;83.05;100141.81;5049758;28;20064;-40
2021/10/14 10:47:46;;;;;;;6.68;3.85;;;;;;;9.23;83.10;100137.13;5049463;28;20017;-40
2021/10/14 10:50:22;;;;;;;6.13;4.38;;;;;;;8.90;83.51;100105.66;5048018;28;20461;-40
2021/10/14 10:53:01;;;;;;;6.55;4.70;;;;;;;9.13;84.16;100133.94;5059340;28;20488;-50
2021/10/14 10:55:26;;;;;;;8.68;4.68;;;;;;;9.23;83.68;100133.66;5070619;28;20090;-50
2021/10/14 10:57:53;;;;;;;7.55;5.10;;;;;;;9.26;85.28;100131.44;5069946;28;20472;-51
2021/10/14 11:00:19;;;;;;;8.35;3.95;;;;;;;9.03;85.62;100128.09;5069872;28;20016;-50
2021/10/14 11:02:45;;;;;;;9.60;4.20;;;;;;;9.35;84.42;100137.50;5057553;28;20032;-51
2021/10/14 11:05:11;;;;;;;5.30;3.70;;;;;;;9.06;84.57;100133.00;5050503;28;20049;-51
2021/10/14 11:07:37;;;;;;;5.70;3.63;;;;;;;9.09;84.73;100130.00;5053595;28;20052;-49
2021/10/14 11:10:03;;;;;;;5.28;3.90;;;;;;;9.19;83.53;100122.56;5052346;28;20112;-50
2021/10/14 11:12:28;;;;;;;4.90;3.53;;;;;;;9.15;84.47;100122.09;5052563;28;20203;-50
2021/10/14 11:14:54;;;;;;;5.88;3.85;;;;;;;9.48;84.99;100131.50;5053067;28;20025;-50
2021/10/14 11:17:19;;;;;;;29.55;19.17;;;;;;;9.55;83.59;100122.59;5053132;28;20025;-50